sensor_id;sensor_type;location;lat;lon;timestamp;pressure;altitude;pressure_sealevel;temperature;humidity
23361;BME280;11852;50.082;18.554;2023-05-29T00:00:09;98752.0;;;13.66;63.18
23361;BME280;11852;50.082;18.554;2023-05-29T00:01:13;98751.0;;;13.63;63.37
23361;BME280;11852;50.082;18.554;2023-05-29T00:02:18;98750.0;;;13.6;63.05
23361;BME280;11852;50.082;18.554;2023-05-29T00:03:23;98750.0;;;13.6;63.49
23361;BME280;11852;50.082;18.554;2023-05-29T00:04:28;98748.5;;;13.59;63.4
23361;BME280;11852;50.082;18.554;2023-05-29T00:05:32;98748.5;;;13.57;63.53
23361;BME280;11852;50.082;18.554;2023-05-29T00:06:39;98745.0;;;13.55;63.74
23361;BME280;11852;50.082;18.554;2023-05-29T00:07:44;98743.0;;;13.52;63.86
23361;BME280;11852;50.082;18.554;2023-05-29T00:08:49;98744.0;;;13.48;64.15
23361;BME280;11852;50.082;18.554;2023-05-29T00:09:54;98743.0;;;13.43;64.03
23361;BME280;11852;50.082;18.554;2023-05-29T00:10:59;98746.0;;;13.42;64.26
23361;BME280;11852;50.082;18.554;2023-05-29T00:12:04;98742.51;;;13.4;63.77
23361;BME280;11852;50.082;18.554;2023-05-29T00:13:09;98745.49;;;13.42;63.84
23361;BME280;11852;50.082;18.554;2023-05-29T00:14:14;98742.51;;;13.43;63.65
23361;BME280;11852;50.082;18.554;2023-05-29T00:15:19;98740.5;;;13.43;63.24
23361;BME280;11852;50.082;18.554;2023-05-29T00:16:24;98741.0;;;13.43;63.35
23361;BME280;11852;50.082;18.554;2023-05-29T00:17:30;98740.0;;;13.41;63.01
23361;BME280;11852;50.082;18.554;2023-05-29T00:18:36;98738.0;;;13.45;63.04
23361;BME280;11852;50.082;18.554;2023-05-29T00:19:41;98737.0;;;13.5;62.66
23361;BME280;11852;50.082;18.554;2023-05-29T00:20:45;98733.5;;;13.5;62.26
23361;BME280;11852;50.082;18.554;2023-05-29T00:21:50;98733.5;;;13.52;62.18
23361;BME280;11852;50.082;18.554;2023-05-29T00:22:55;98731.0;;;13.51;61.89
23361;BME280;11852;50.082;18.554;2023-05-29T00:24:00;98728.0;;;13.57;61.82
23361;BME280;11852;50.082;18.554;2023-05-29T00:25:05;98731.99;;;13.6;61.89
23361;BME280;11852;50.082;18.554;2023-05-29T00:26:10;98729.5;;;13.59;61.62
23361;BME280;11852;50.082;18.554;2023-05-29T00:27:14;98731.5;;;13.58;61.5
23361;BME280;11852;50.082;18.554;2023-05-29T00:28:19;98731.49;;;13.64;61.58
23361;BME280;11852;50.082;18.554;2023-05-29T00:29:24;98728.5;;;13.66;61.49
23361;BME280;11852;50.082;18.554;2023-05-29T00:30:29;98729.51;;;13.64;61.42
23361;BME280;11852;50.082;18.554;2023-05-29T00:31:33;98729.0;;;13.59;61.06
23361;BME280;11852;50.082;18.554;2023-05-29T00:32:38;98730.5;;;13.61;61.26
23361;BME280;11852;50.082;18.554;2023-05-29T00:33:43;98727.0;;;13.63;61.31
23361;BME280;11852;50.082;18.554;2023-05-29T00:34:48;98726.0;;;13.65;61.24
23361;BME280;11852;50.082;18.554;2023-05-29T00:35:53;98727.0;;;13.65;60.93
23361;BME280;11852;50.082;18.554;2023-05-29T00:36:58;98725.5;;;13.59;60.43
23361;BME280;11852;50.082;18.554;2023-05-29T00:38:02;98731.0;;;13.65;60.68
23361;BME280;11852;50.082;18.554;2023-05-29T00:39:07;98729.5;;;13.65;60.89
23361;BME280;11852;50.082;18.554;2023-05-29T00:40:11;98732.0;;;13.6;60.74
23361;BME280;11852;50.082;18.554;2023-05-29T00:41:16;98732.49;;;13.63;60.74
23361;BME280;11852;50.082;18.554;2023-05-29T00:42:21;98735.0;;;13.65;60.96
23361;BME280;11852;50.082;18.554;2023-05-29T00:43:26;98734.5;;;13.66;60.95
23361;BME280;11852;50.082;18.554;2023-05-29T00:44:31;98736.5;;;13.67;61.19
23361;BME280;11852;50.082;18.554;2023-05-29T00:45:38;98734.0;;;13.68;61.21
23361;BME280;11852;50.082;18.554;2023-05-29T00:46:43;98735.5;;;13.65;61.06
23361;BME280;11852;50.082;18.554;2023-05-29T00:47:47;98732.99;;;13.66;61.33
23361;BME280;11852;50.082;18.554;2023-05-29T00:48:52;98732.49;;;13.65;61.37
23361;BME280;11852;50.082;18.554;2023-05-29T00:49:57;98736.0;;;13.64;61.52
23361;BME280;11852;50.082;18.554;2023-05-29T00:51:02;98735.0;;;13.63;61.64
23361;BME280;11852;50.082;18.554;2023-05-29T00:52:06;98732.99;;;13.6;61.67
23361;BME280;11852;50.082;18.554;2023-05-29T00:53:11;98731.99;;;13.58;61.6
23361;BME280;11852;50.082;18.554;2023-05-29T00:54:17;98730.01;;;13.53;61.53
23361;BME280;11852;50.082;18.554;2023-05-29T00:55:21;98731.99;;;13.53;62.06
23361;BME280;11852;50.082;18.554;2023-05-29T00:56:25;98734.0;;;13.53;61.88
23361;BME280;11852;50.082;18.554;2023-05-29T00:57:30;98730.01;;;13.55;61.91
23361;BME280;11852;50.082;18.554;2023-05-29T00:58:35;98730.5;;;13.53;61.88
23361;BME280;11852;50.082;18.554;2023-05-29T00:59:39;98730.5;;;13.53;61.92
23361;BME280;11852;50.082;18.554;2023-05-29T01:00:45;98728.5;;;13.55;62.06
23361;BME280;11852;50.082;18.554;2023-05-29T01:01:50;98729.0;;;13.52;62.1
23361;BME280;11852;50.082;18.554;2023-05-29T01:02:55;98728.0;;;13.49;62.07
23361;BME280;11852;50.082;18.554;2023-05-29T01:04:01;98728.0;;;13.46;62.32
23361;BME280;11852;50.082;18.554;2023-05-29T01:05:06;98727.5;;;13.45;62.45
23361;BME280;11852;50.082;18.554;2023-05-29T01:06:12;98727.5;;;13.41;62.81
23361;BME280;11852;50.082;18.554;2023-05-29T01:07:17;98727.5;;;13.38;62.96
23361;BME280;11852;50.082;18.554;2023-05-29T01:08:23;98728.0;;;13.35;62.76
23361;BME280;11852;50.082;18.554;2023-05-29T01:09:28;98729.5;;;13.31;62.76
23361;BME280;11852;50.082;18.554;2023-05-29T01:10:32;98729.5;;;13.28;62.76
23361;BME280;11852;50.082;18.554;2023-05-29T01:11:49;98729.0;;;13.3;62.68
23361;BME280;11852;50.082;18.554;2023-05-29T01:12:56;98732.49;;;13.28;62.64
23361;BME280;11852;50.082;18.554;2023-05-29T01:13:59;98728.5;;;13.27;62.81
23361;BME280;11852;50.082;18.554;2023-05-29T01:16:26;98733.5;;;13.24;62.99
23361;BME280;11852;50.082;18.554;2023-05-29T01:18:46;98734.0;;;13.18;63.51
23361;BME280;11852;50.082;18.554;2023-05-29T01:19:57;98733.5;;;13.16;63.76
23361;BME280;11852;50.082;18.554;2023-05-29T01:21:03;98734.5;;;13.13;63.87
23361;BME280;11852;50.082;18.554;2023-05-29T01:22:16;98733.5;;;13.09;64.07
23361;BME280;11852;50.082;18.554;2023-05-29T01:23:28;98734.0;;;13.09;64.13
23361;BME280;11852;50.082;18.554;2023-05-29T01:24:45;98735.5;;;13.06;64.38
23361;BME280;11852;50.082;18.554;2023-05-29T01:28:03;98736.0;;;13.01;64.7
23361;BME280;11852;50.082;18.554;2023-05-29T01:29:08;98734.0;;;12.99;64.56
23361;BME280;11852;50.082;18.554;2023-05-29T01:30:13;98734.0;;;13.01;64.63
23361;BME280;11852;50.082;18.554;2023-05-29T01:31:22;98733.5;;;13.03;64.79
23361;BME280;11852;50.082;18.554;2023-05-29T01:32:27;98733.5;;;13.05;64.9
23361;BME280;11852;50.082;18.554;2023-05-29T01:33:33;98732.49;;;13.05;64.62
23361;BME280;11852;50.082;18.554;2023-05-29T01:34:37;98731.49;;;13.04;64.76
23361;BME280;11852;50.082;18.554;2023-05-29T01:35:42;98729.0;;;13.05;65.28
23361;BME280;11852;50.082;18.554;2023-05-29T01:36:47;98727.0;;;13.06;65.1
23361;BME280;11852;50.082;18.554;2023-05-29T01:37:51;98729.0;;;13.01;64.68
23361;BME280;11852;50.082;18.554;2023-05-29T01:38:57;98727.5;;;12.98;65.23
23361;BME280;11852;50.082;18.554;2023-05-29T01:40:01;98725.5;;;12.97;65.14
23361;BME280;11852;50.082;18.554;2023-05-29T01:41:06;98726.5;;;12.98;65.3
23361;BME280;11852;50.082;18.554;2023-05-29T01:42:10;98725.5;;;12.98;65.18
23361;BME280;11852;50.082;18.554;2023-05-29T01:43:15;98726.0;;;12.98;65.28
23361;BME280;11852;50.082;18.554;2023-05-29T01:44:20;98723.0;;;12.94;65.4
23361;BME280;11852;50.082;18.554;2023-05-29T01:45:24;98724.5;;;12.94;65.44
23361;BME280;11852;50.082;18.554;2023-05-29T01:46:29;98722.5;;;12.91;65.17
23361;BME280;11852;50.082;18.554;2023-05-29T01:47:34;98722.5;;;12.91;64.92
23361;BME280;11852;50.082;18.554;2023-05-29T01:48:40;98723.5;;;12.87;64.57
23361;BME280;11852;50.082;18.554;2023-05-29T01:49:44;98721.0;;;12.85;64.76
23361;BME280;11852;50.082;18.554;2023-05-29T01:50:49;98722.5;;;12.82;64.68
23361;BME280;11852;50.082;18.554;2023-05-29T01:51:53;98721.0;;;12.78;64.59
23361;BME280;11852;50.082;18.554;2023-05-29T01:52:58;98721.5;;;12.77;64.75
23361;BME280;11852;50.082;18.554;2023-05-29T01:54:03;98721.5;;;12.77;64.75
23361;BME280;11852;50.082;18.554;2023-05-29T01:55:09;98721.0;;;12.77;64.81
23361;BME280;11852;50.082;18.554;2023-05-29T01:56:14;98722.0;;;12.75;64.71
23361;BME280;11852;50.082;18.554;2023-05-29T01:57:20;98722.5;;;12.8;64.86
23361;BME280;11852;50.082;18.554;2023-05-29T01:58:26;98724.5;;;12.81;64.67
23361;BME280;11852;50.082;18.554;2023-05-29T01:59:30;98726.0;;;12.82;64.69
23361;BME280;11852;50.082;18.554;2023-05-29T02:00:35;98725.5;;;12.81;64.88
23361;BME280;11852;50.082;18.554;2023-05-29T02:01:41;98725.0;;;12.8;64.76
23361;BME280;11852;50.082;18.554;2023-05-29T02:02:46;98726.0;;;12.75;65.01
23361;BME280;11852;50.082;18.554;2023-05-29T02:03:53;98724.5;;;12.74;64.9
23361;BME280;11852;50.082;18.554;2023-05-29T02:04:58;98726.0;;;12.73;64.81
23361;BME280;11852;50.082;18.554;2023-05-29T02:06:04;98724.0;;;12.68;65.04
23361;BME280;11852;50.082;18.554;2023-05-29T02:07:09;98723.0;;;12.67;65.25
23361;BME280;11852;50.082;18.554;2023-05-29T02:08:14;98722.0;;;12.69;65.62
23361;BME280;11852;50.082;18.554;2023-05-29T02:09:20;98720.0;;;12.73;65.49
23361;BME280;11852;50.082;18.554;2023-05-29T02:10:25;98721.0;;;12.69;65.57
23361;BME280;11852;50.082;18.554;2023-05-29T02:11:30;98719.5;;;12.68;65.89
23361;BME280;11852;50.082;18.554;2023-05-29T02:12:34;98721.0;;;12.68;66.1
23361;BME280;11852;50.082;18.554;2023-05-29T02:13:39;98719.99;;;12.62;66.08
23361;BME280;11852;50.082;18.554;2023-05-29T02:14:44;98721.5;;;12.59;66.17
23361;BME280;11852;50.082;18.554;2023-05-29T02:15:49;98724.0;;;12.6;66.41
23361;BME280;11852;50.082;18.554;2023-05-29T02:16:54;98722.5;;;12.57;66.35
23361;BME280;11852;50.082;18.554;2023-05-29T02:17:59;98723.5;;;12.55;66.71
23361;BME280;11852;50.082;18.554;2023-05-29T02:19:06;98724.0;;;12.52;66.86
23361;BME280;11852;50.082;18.554;2023-05-29T02:20:16;98723.5;;;12.51;66.94
23361;BME280;11852;50.082;18.554;2023-05-29T02:21:29;98723.5;;;12.52;67.18
23361;BME280;11852;50.082;18.554;2023-05-29T02:22:34;98722.0;;;12.4;67.15
23361;BME280;11852;50.082;18.554;2023-05-29T02:23:39;98722.0;;;12.4;67.14
23361;BME280;11852;50.082;18.554;2023-05-29T02:24:44;98722.0;;;12.41;67.26
23361;BME280;11852;50.082;18.554;2023-05-29T02:25:53;98724.0;;;12.41;67.57
23361;BME280;11852;50.082;18.554;2023-05-29T02:27:00;98721.0;;;12.38;67.83
23361;BME280;11852;50.082;18.554;2023-05-29T02:28:10;98723.5;;;12.34;68.01
23361;BME280;11852;50.082;18.554;2023-05-29T02:29:15;98724.5;;;12.35;67.93
23361;BME280;11852;50.082;18.554;2023-05-29T02:30:21;98725.5;;;12.31;67.95
23361;BME280;11852;50.082;18.554;2023-05-29T02:31:26;98722.5;;;12.3;68.16
23361;BME280;11852;50.082;18.554;2023-05-29T02:32:44;98725.5;;;12.24;68.26
23361;BME280;11852;50.082;18.554;2023-05-29T02:33:49;98720.5;;;12.18;68.24
23361;BME280;11852;50.082;18.554;2023-05-29T02:34:57;98722.0;;;12.12;68.21
23361;BME280;11852;50.082;18.554;2023-05-29T02:36:03;98720.0;;;12.11;68.46
23361;BME280;11852;50.082;18.554;2023-05-29T02:37:08;98719.5;;;12.17;68.5
23361;BME280;11852;50.082;18.554;2023-05-29T02:38:21;98720.49;;;12.18;68.58
23361;BME280;11852;50.082;18.554;2023-05-29T02:39:30;98718.0;;;12.19;68.6
23361;BME280;11852;50.082;18.554;2023-05-29T02:40:40;98720.0;;;12.21;68.61
23361;BME280;11852;50.082;18.554;2023-05-29T02:41:44;98719.0;;;12.2;68.46
23361;BME280;11852;50.082;18.554;2023-05-29T02:42:49;98716.0;;;12.24;68.51
23361;BME280;11852;50.082;18.554;2023-05-29T02:43:54;98717.51;;;12.26;68.53
23361;BME280;11852;50.082;18.554;2023-05-29T02:45:02;98716.0;;;12.26;68.58
23361;BME280;11852;50.082;18.554;2023-05-29T02:46:10;98715.5;;;12.27;68.64
23361;BME280;11852;50.082;18.554;2023-05-29T02:47:18;98713.0;;;12.27;68.48
23361;BME280;11852;50.082;18.554;2023-05-29T02:48:24;98711.0;;;12.28;68.49
23361;BME280;11852;50.082;18.554;2023-05-29T02:49:29;98709.5;;;12.3;68.74
23361;BME280;11852;50.082;18.554;2023-05-29T02:50:34;98711.0;;;12.31;68.86
23361;BME280;11852;50.082;18.554;2023-05-29T02:51:39;98711.0;;;12.26;68.65
23361;BME280;11852;50.082;18.554;2023-05-29T02:52:44;98712.0;;;12.26;68.8
23361;BME280;11852;50.082;18.554;2023-05-29T02:53:50;98714.0;;;12.27;68.87
23361;BME280;11852;50.082;18.554;2023-05-29T02:54:55;98710.0;;;12.25;68.82
23361;BME280;11852;50.082;18.554;2023-05-29T02:55:59;98712.0;;;12.26;68.94
23361;BME280;11852;50.082;18.554;2023-05-29T02:57:06;98713.5;;;12.23;68.85
23361;BME280;11852;50.082;18.554;2023-05-29T02:58:14;98711.0;;;12.24;69.07
23361;BME280;11852;50.082;18.554;2023-05-29T02:59:29;98711.0;;;12.27;69.18
23361;BME280;11852;50.082;18.554;2023-05-29T03:00:42;98707.99;;;12.26;69.36
23361;BME280;11852;50.082;18.554;2023-05-29T03:01:52;98707.49;;;12.25;69.48
23361;BME280;11852;50.082;18.554;2023-05-29T03:03:03;98706.49;;;12.26;69.56
23361;BME280;11852;50.082;18.554;2023-05-29T03:04:09;98706.49;;;12.24;69.52
23361;BME280;11852;50.082;18.554;2023-05-29T03:05:15;98703.0;;;12.22;69.6
23361;BME280;11852;50.082;18.554;2023-05-29T03:06:19;98706.0;;;12.2;69.46
23361;BME280;11852;50.082;18.554;2023-05-29T03:07:24;98705.01;;;12.19;69.22
23361;BME280;11852;50.082;18.554;2023-05-29T03:08:29;98703.0;;;12.17;69.36
23361;BME280;11852;50.082;18.554;2023-05-29T03:09:34;98704.51;;;12.11;69.38
23361;BME280;11852;50.082;18.554;2023-05-29T03:10:39;98705.0;;;12.12;69.7
23361;BME280;11852;50.082;18.554;2023-05-29T03:11:44;98703.5;;;12.15;69.63
23361;BME280;11852;50.082;18.554;2023-05-29T03:12:49;98702.5;;;12.15;69.63
23361;BME280;11852;50.082;18.554;2023-05-29T03:13:54;98703.5;;;12.14;69.73
23361;BME280;11852;50.082;18.554;2023-05-29T03:14:58;98701.0;;;12.16;69.68
23361;BME280;11852;50.082;18.554;2023-05-29T03:16:03;98702.5;;;12.18;69.67
23361;BME280;11852;50.082;18.554;2023-05-29T03:17:09;98702.5;;;12.14;69.65
23361;BME280;11852;50.082;18.554;2023-05-29T03:18:16;98706.0;;;12.1;69.65
23361;BME280;11852;50.082;18.554;2023-05-29T03:19:20;98707.49;;;12.0;70.06
23361;BME280;11852;50.082;18.554;2023-05-29T03:20:25;98709.5;;;11.95;70.14
23361;BME280;11852;50.082;18.554;2023-05-29T03:21:30;98712.0;;;11.94;70.04
23361;BME280;11852;50.082;18.554;2023-05-29T03:22:35;98712.5;;;11.97;70.25
23361;BME280;11852;50.082;18.554;2023-05-29T03:23:39;98712.0;;;11.98;70.27
23361;BME280;11852;50.082;18.554;2023-05-29T03:24:45;98714.5;;;11.95;70.39
23361;BME280;11852;50.082;18.554;2023-05-29T03:25:51;98715.5;;;11.98;70.53
23361;BME280;11852;50.082;18.554;2023-05-29T03:26:57;98713.5;;;11.98;70.57
23361;BME280;11852;50.082;18.554;2023-05-29T03:28:01;98713.0;;;11.99;70.6
23361;BME280;11852;50.082;18.554;2023-05-29T03:29:07;98715.5;;;11.98;70.47
23361;BME280;11852;50.082;18.554;2023-05-29T03:30:12;98715.5;;;11.99;70.41
23361;BME280;11852;50.082;18.554;2023-05-29T03:31:17;98715.0;;;11.98;70.58
23361;BME280;11852;50.082;18.554;2023-05-29T03:32:23;98717.51;;;11.98;70.47
23361;BME280;11852;50.082;18.554;2023-05-29T03:33:28;98718.0;;;12.0;70.63
23361;BME280;11852;50.082;18.554;2023-05-29T03:34:34;98719.0;;;12.0;70.94
23361;BME280;11852;50.082;18.554;2023-05-29T03:35:39;98718.0;;;12.0;70.87
23361;BME280;11852;50.082;18.554;2023-05-29T03:36:44;98718.01;;;12.02;71.04
23361;BME280;11852;50.082;18.554;2023-05-29T03:37:49;98720.5;;;12.03;71.01
23361;BME280;11852;50.082;18.554;2023-05-29T03:38:53;98722.0;;;12.02;71.07
23361;BME280;11852;50.082;18.554;2023-05-29T03:39:58;98721.5;;;12.05;70.94
23361;BME280;11852;50.082;18.554;2023-05-29T03:41:03;98724.5;;;12.03;71.01
23361;BME280;11852;50.082;18.554;2023-05-29T03:42:08;98722.5;;;12.05;70.97
23361;BME280;11852;50.082;18.554;2023-05-29T03:43:13;98726.0;;;12.04;71.24
23361;BME280;11852;50.082;18.554;2023-05-29T03:44:18;98721.0;;;12.03;71.35
23361;BME280;11852;50.082;18.554;2023-05-29T03:45:24;98720.49;;;12.03;71.52
23361;BME280;11852;50.082;18.554;2023-05-29T03:46:30;98723.5;;;12.05;71.85
23361;BME280;11852;50.082;18.554;2023-05-29T03:47:35;98721.5;;;12.06;72.05
23361;BME280;11852;50.082;18.554;2023-05-29T03:48:40;98720.5;;;12.09;72.36
23361;BME280;11852;50.082;18.554;2023-05-29T03:49:44;98723.5;;;12.06;72.46
23361;BME280;11852;50.082;18.554;2023-05-29T03:50:49;98722.5;;;12.13;72.49
23361;BME280;11852;50.082;18.554;2023-05-29T03:51:54;98724.5;;;12.14;72.51
23361;BME280;11852;50.082;18.554;2023-05-29T03:52:59;98723.0;;;12.18;72.64
23361;BME280;11852;50.082;18.554;2023-05-29T03:54:04;98725.0;;;12.2;72.6
23361;BME280;11852;50.082;18.554;2023-05-29T03:55:09;98726.5;;;12.23;72.68
23361;BME280;11852;50.082;18.554;2023-05-29T03:56:16;98726.5;;;12.24;72.63
23361;BME280;11852;50.082;18.554;2023-05-29T03:57:21;98725.0;;;12.27;72.42
23361;BME280;11852;50.082;18.554;2023-05-29T03:58:26;98727.0;;;12.29;72.56
23361;BME280;11852;50.082;18.554;2023-05-29T03:59:31;98723.0;;;12.32;72.64
23361;BME280;11852;50.082;18.554;2023-05-29T04:00:36;98727.5;;;12.31;72.99
23361;BME280;11852;50.082;18.554;2023-05-29T04:01:43;98725.5;;;12.3;73.13
23361;BME280;11852;50.082;18.554;2023-05-29T04:02:47;98726.0;;;12.27;73.29
23361;BME280;11852;50.082;18.554;2023-05-29T04:03:53;98726.5;;;12.25;73.34
23361;BME280;11852;50.082;18.554;2023-05-29T04:04:59;98728.0;;;12.23;73.4
23361;BME280;11852;50.082;18.554;2023-05-29T04:06:03;98728.0;;;12.24;73.48
23361;BME280;11852;50.082;18.554;2023-05-29T04:07:08;98726.0;;;12.25;73.37
23361;BME280;11852;50.082;18.554;2023-05-29T04:08:13;98724.5;;;12.25;73.25
23361;BME280;11852;50.082;18.554;2023-05-29T04:09:18;98724.0;;;12.24;73.32
23361;BME280;11852;50.082;18.554;2023-05-29T04:10:24;98726.0;;;12.24;73.26
23361;BME280;11852;50.082;18.554;2023-05-29T04:11:29;98725.5;;;12.27;73.38
23361;BME280;11852;50.082;18.554;2023-05-29T04:12:34;98725.5;;;12.31;73.43
23361;BME280;11852;50.082;18.554;2023-05-29T04:13:40;98725.0;;;12.35;73.18
23361;BME280;11852;50.082;18.554;2023-05-29T04:14:45;98726.5;;;12.38;73.22
23361;BME280;11852;50.082;18.554;2023-05-29T04:15:50;98728.0;;;12.41;73.07
23361;BME280;11852;50.082;18.554;2023-05-29T04:16:55;98728.0;;;12.44;72.93
23361;BME280;11852;50.082;18.554;2023-05-29T04:18:00;98731.0;;;12.47;73.18
23361;BME280;11852;50.082;18.554;2023-05-29T04:19:04;98730.5;;;12.5;73.18
23361;BME280;11852;50.082;18.554;2023-05-29T04:20:09;98731.49;;;12.51;73.18
23361;BME280;11852;50.082;18.554;2023-05-29T04:21:14;98731.99;;;12.53;73.36
23361;BME280;11852;50.082;18.554;2023-05-29T04:22:19;98732.49;;;12.57;73.26
23361;BME280;11852;50.082;18.554;2023-05-29T04:23:24;98736.5;;;12.56;73.42
23361;BME280;11852;50.082;18.554;2023-05-29T04:24:29;98737.5;;;12.57;73.38
23361;BME280;11852;50.082;18.554;2023-05-29T04:25:34;98739.0;;;12.59;73.44
23361;BME280;11852;50.082;18.554;2023-05-29T04:26:38;98739.0;;;12.6;73.37
23361;BME280;11852;50.082;18.554;2023-05-29T04:27:44;98739.5;;;12.61;73.38
23361;BME280;11852;50.082;18.554;2023-05-29T04:28:49;98740.0;;;12.61;73.43
23361;BME280;11852;50.082;18.554;2023-05-29T04:29:55;98739.5;;;12.65;73.56
23361;BME280;11852;50.082;18.554;2023-05-29T04:31:00;98740.0;;;12.69;73.42
23361;BME280;11852;50.082;18.554;2023-05-29T04:32:06;98737.0;;;12.7;73.49
23361;BME280;11852;50.082;18.554;2023-05-29T04:33:12;98740.0;;;12.71;73.48
23361;BME280;11852;50.082;18.554;2023-05-29T04:34:17;98739.0;;;12.74;73.29
23361;BME280;11852;50.082;18.554;2023-05-29T04:35:21;98743.01;;;12.8;73.25
23361;BME280;11852;50.082;18.554;2023-05-29T04:36:27;98743.01;;;12.82;73.03
23361;BME280;11852;50.082;18.554;2023-05-29T04:37:32;98746.5;;;12.82;73.08
23361;BME280;11852;50.082;18.554;2023-05-29T04:38:36;98748.5;;;12.88;72.92
23361;BME280;11852;50.082;18.554;2023-05-29T04:39:41;98749.0;;;12.89;72.85
23361;BME280;11852;50.082;18.554;2023-05-29T04:40:48;98749.5;;;12.91;72.71
23361;BME280;11852;50.082;18.554;2023-05-29T04:41:53;98751.0;;;12.9;72.83
23361;BME280;11852;50.082;18.554;2023-05-29T04:42:58;98752.5;;;12.98;72.7
23361;BME280;11852;50.082;18.554;2023-05-29T04:44:03;98750.5;;;13.0;72.68
23361;BME280;11852;50.082;18.554;2023-05-29T04:45:08;98750.5;;;13.01;72.59
23361;BME280;11852;50.082;18.554;2023-05-29T04:46:12;98753.0;;;13.06;72.38
23361;BME280;11852;50.082;18.554;2023-05-29T04:47:18;98750.0;;;13.1;72.18
23361;BME280;11852;50.082;18.554;2023-05-29T04:48:24;98750.5;;;13.15;71.87
23361;BME280;11852;50.082;18.554;2023-05-29T04:49:31;98750.5;;;13.15;71.85
23361;BME280;11852;50.082;18.554;2023-05-29T04:50:35;98750.5;;;13.19;71.75
23361;BME280;11852;50.082;18.554;2023-05-29T04:51:42;98749.0;;;13.23;71.6
23361;BME280;11852;50.082;18.554;2023-05-29T04:52:47;98749.0;;;13.25;71.49
23361;BME280;11852;50.082;18.554;2023-05-29T04:53:52;98747.0;;;13.27;71.43
23361;BME280;11852;50.082;18.554;2023-05-29T04:54:56;98750.0;;;13.3;71.36
23361;BME280;11852;50.082;18.554;2023-05-29T04:56:01;98747.5;;;13.35;71.14
23361;BME280;11852;50.082;18.554;2023-05-29T04:57:06;98747.5;;;13.34;71.01
23361;BME280;11852;50.082;18.554;2023-05-29T04:58:15;98750.0;;;13.38;70.5
23361;BME280;11852;50.082;18.554;2023-05-29T04:59:20;98752.5;;;13.4;70.46
23361;BME280;11852;50.082;18.554;2023-05-29T05:00:25;98753.0;;;13.43;70.5
23361;BME280;11852;50.082;18.554;2023-05-29T05:01:30;98754.0;;;13.5;70.43
23361;BME280;11852;50.082;18.554;2023-05-29T05:02:35;98756.5;;;13.54;70.42
23361;BME280;11852;50.082;18.554;2023-05-29T05:03:40;98756.0;;;13.58;70.35
23361;BME280;11852;50.082;18.554;2023-05-29T05:04:45;98756.5;;;13.6;70.38
23361;BME280;11852;50.082;18.554;2023-05-29T05:05:49;98755.5;;;13.63;70.29
23361;BME280;11852;50.082;18.554;2023-05-29T05:06:54;98759.5;;;13.64;70.48
23361;BME280;11852;50.082;18.554;2023-05-29T05:08:09;98759.0;;;13.64;70.11
23361;BME280;11852;50.082;18.554;2023-05-29T05:09:14;98757.0;;;13.65;70.0
23361;BME280;11852;50.082;18.554;2023-05-29T05:10:20;98757.5;;;13.72;69.85
23361;BME280;11852;50.082;18.554;2023-05-29T05:11:26;98758.0;;;13.72;69.82
23361;BME280;11852;50.082;18.554;2023-05-29T05:12:31;98759.0;;;13.77;69.78
23361;BME280;11852;50.082;18.554;2023-05-29T05:13:41;98756.99;;;13.78;69.52
23361;BME280;11852;50.082;18.554;2023-05-29T05:14:46;98756.0;;;13.85;69.47
23361;BME280;11852;50.082;18.554;2023-05-29T05:15:52;98760.0;;;13.87;68.84
23361;BME280;11852;50.082;18.554;2023-05-29T05:16:57;98758.5;;;13.89;68.63
23361;BME280;11852;50.082;18.554;2023-05-29T05:18:01;98765.5;;;13.93;68.57
23361;BME280;11852;50.082;18.554;2023-05-29T05:19:07;98764.5;;;13.94;68.46
23361;BME280;11852;50.082;18.554;2023-05-29T05:20:12;98764.0;;;13.95;68.06
23361;BME280;11852;50.082;18.554;2023-05-29T05:21:18;98764.5;;;13.99;67.6
23361;BME280;11852;50.082;18.554;2023-05-29T05:22:23;98764.0;;;14.02;67.35
23361;BME280;11852;50.082;18.554;2023-05-29T05:23:29;98767.01;;;14.07;67.47
23361;BME280;11852;50.082;18.554;2023-05-29T05:24:37;98764.5;;;14.06;67.25
23361;BME280;11852;50.082;18.554;2023-05-29T05:25:41;98766.5;;;14.11;67.37
23361;BME280;11852;50.082;18.554;2023-05-29T05:26:47;98764.5;;;14.09;67.67
23361;BME280;11852;50.082;18.554;2023-05-29T05:27:51;98765.0;;;14.15;67.77
23361;BME280;11852;50.082;18.554;2023-05-29T05:28:56;98763.5;;;14.19;67.85
23361;BME280;11852;50.082;18.554;2023-05-29T05:30:02;98765.5;;;14.22;67.8
23361;BME280;11852;50.082;18.554;2023-05-29T05:31:06;98770.0;;;14.27;67.64
23361;BME280;11852;50.082;18.554;2023-05-29T05:32:11;98771.0;;;14.28;67.6
23361;BME280;11852;50.082;18.554;2023-05-29T05:33:17;98772.0;;;14.3;67.69
23361;BME280;11852;50.082;18.554;2023-05-29T05:34:22;98773.0;;;14.24;67.86
23361;BME280;11852;50.082;18.554;2023-05-29T05:35:28;98773.5;;;14.32;67.64
23361;BME280;11852;50.082;18.554;2023-05-29T05:36:32;98772.5;;;14.26;68.29
23361;BME280;11852;50.082;18.554;2023-05-29T05:37:37;98777.5;;;14.38;68.13
23361;BME280;11852;50.082;18.554;2023-05-29T05:38:42;98777.5;;;14.43;68.12
23361;BME280;11852;50.082;18.554;2023-05-29T05:39:47;98779.0;;;14.49;67.86
23361;BME280;11852;50.082;18.554;2023-05-29T05:40:52;98776.5;;;14.52;67.65
23361;BME280;11852;50.082;18.554;2023-05-29T05:41:57;98778.0;;;14.55;67.58
23361;BME280;11852;50.082;18.554;2023-05-29T05:43:03;98780.5;;;14.54;68.01
23361;BME280;11852;50.082;18.554;2023-05-29T05:44:08;98781.0;;;14.57;67.76
23361;BME280;11852;50.082;18.554;2023-05-29T05:45:12;98779.0;;;14.63;68.04
23361;BME280;11852;50.082;18.554;2023-05-29T05:46:17;98780.5;;;14.63;67.47
23361;BME280;11852;50.082;18.554;2023-05-29T05:47:22;98782.99;;;14.7;67.0
23361;BME280;11852;50.082;18.554;2023-05-29T05:48:27;98779.51;;;14.72;67.15
23361;BME280;11852;50.082;18.554;2023-05-29T05:49:32;98779.0;;;14.65;67.18
23361;BME280;11852;50.082;18.554;2023-05-29T05:50:36;98782.49;;;14.76;67.08
23361;BME280;11852;50.082;18.554;2023-05-29T05:51:43;98780.01;;;14.81;66.85